Time;durP1;ratioP1;P1;durP2;ratioP2;P2;SDS_P1;SDS_P2;PMS_P1;PMS_P2;Temp;Humidity;BMP_temperature;BMP_pressure;BME280_temperature;BME280_humidity;BME280_pressure;Samples;Min_cycle;Max_cycle;Signal;HPM_P1;HPM_P2
2021/04/09 00:00:34;;;;;;;10.67;4.83;;;;;;;;;;5015251;28;20267;-46
2021/04/09 00:03:00;;;;;;;14.47;4.97;;;;;;;;;;5018831;28;20257;-46
2021/04/09 00:05:26;;;;;;;11.43;5.10;;;;;;;;;;5020693;28;20755;-46
2021/04/09 00:07:51;;;;;;;7.33;5.20;;;;;;;;;;5008693;28;20198;-46
2021/04/09 00:10:20;;;;;;;5.83;4.40;;;;;;;;;;5021920;28;20202;-46
2021/04/09 00:12:45;;;;;;;2.10;1.47;;;;;;;;;;5021614;28;20234;-46
2021/04/09 00:15:11;;;;;;;2.93;1.73;;;;;;;;;;5016170;28;20217;-46
2021/04/09 00:17:40;;;;;;;2.80;1.93;;;;;;;;;;5024953;28;20190;-45
2021/04/09 00:20:06;;;;;;;1.37;1.20;;;;;;;;;;5017931;28;20679;-45
2021/04/09 00:22:31;;;;;;;4.10;2.40;;;;;;;;;;5020928;28;20207;-45
2021/04/09 00:24:56;;;;;;;3.43;2.20;;;;;;;;;;5019598;28;20199;-47
2021/04/09 00:27:22;;;;;;;4.03;3.13;;;;;;;;;;5019873;28;20687;-47
2021/04/09 00:29:47;;;;;;;1.97;1.87;;;;;;;;;;5018097;28;20246;-46
2021/04/09 00:32:12;;;;;;;3.97;2.30;;;;;;;;;;5017218;28;20585;-46
2021/04/09 00:34:37;;;;;;;6.00;2.27;;;;;;;;;;5016440;28;20245;-48
2021/04/09 00:37:03;;;;;;;5.10;1.70;;;;;;;;;;5021029;28;20195;-45
2021/04/09 00:39:28;;;;;;;1.77;1.60;;;;;;;;;;5010640;28;20190;-47
2021/04/09 00:41:53;;;;;;;1.60;1.13;;;;;;;;;;5020387;28;20251;-47
2021/04/09 00:44:19;;;;;;;3.47;1.47;;;;;;;;;;5016768;28;20233;-49
2021/04/09 00:46:44;;;;;;;0.97;0.90;;;;;;;;;;5019600;28;20666;-47
2021/04/09 00:49:10;;;;;;;1.17;1.07;;;;;;;;;;5018812;28;20206;-47
2021/04/09 00:51:36;;;;;;;6.33;3.30;;;;;;;;;;5018182;28;20238;-48
2021/04/09 00:54:03;;;;;;;8.50;2.70;;;;;;;;;;5022019;28;20222;-47
2021/04/09 00:56:30;;;;;;;3.73;1.90;;;;;;;;;;5020162;28;20274;-47
2021/04/09 00:58:56;;;;;;;3.67;2.30;;;;;;;;;;5018870;28;20617;-48
2021/04/09 01:01:22;;;;;;;5.43;2.43;;;;;;;;;;5023607;28;20301;-47
2021/04/09 01:03:48;;;;;;;5.07;1.60;;;;;;;;;;5017812;28;20356;-47
2021/04/09 01:06:13;;;;;;;0.73;0.73;;;;;;;;;;5019951;28;20206;-47
2021/04/09 01:08:39;;;;;;;1.80;1.37;;;;;;;;;;5017242;28;20211;-46
2021/04/09 01:11:05;;;;;;;2.50;1.17;;;;;;;;;;5016852;28;20793;-47
2021/04/09 01:13:31;;;;;;;1.47;1.03;;;;;;;;;;5015654;28;20566;-48
2021/04/09 01:15:57;;;;;;;0.90;0.80;;;;;;;;;;5016382;28;20249;-47
2021/04/09 01:18:39;;;;;;;1.77;1.67;;;;;;;;;;5015747;28;20699;-47
2021/04/09 01:21:22;;;;;;;2.23;1.77;;;;;;;;;;5035286;28;20203;-48
2021/04/09 01:24:31;;;;;;;2.37;2.17;;;;;;;;;;5012654;28;20215;-47
2021/04/09 01:27:07;;;;;;;1.20;1.10;;;;;;;;;;5019129;28;20214;-46
2021/04/09 01:30:00;;;;;;;4.30;3.07;;;;;;;;;;5019320;28;20217;-47
2021/04/09 01:32:26;;;;;;;7.90;4.07;;;;;;;;;;5011486;28;20206;-47
2021/04/09 01:34:54;;;;;;;2.03;1.87;;;;;;;;;;5017787;28;20197;-47
2021/04/09 01:37:26;;;;;;;2.20;1.70;;;;;;;;;;5035377;28;20190;-47
2021/04/09 01:40:03;;;;;;;3.27;2.47;;;;;;;;;;5020973;28;20198;-45
2021/04/09 01:42:33;;;;;;;0.93;0.73;;;;;;;;;;5017775;28;20208;-47
2021/04/09 01:44:59;;;;;;;18.03;3.27;;;;;;;;;;5015580;28;20194;-47
2021/04/09 01:47:26;;;;;;;4.27;2.90;;;;;;;;;;5021586;28;20188;-47
2021/04/09 01:50:00;;;;;;;4.00;2.73;;;;;;;;;;5022739;28;20297;-46
2021/04/09 01:52:26;;;;;;;4.97;2.90;;;;;;;;;;5016915;28;20293;-47
2021/04/09 01:54:53;;;;;;;4.43;2.73;;;;;;;;;;5020313;28;20198;-46
2021/04/09 01:57:20;;;;;;;2.10;1.63;;;;;;;;;;5020057;28;20747;-47
2021/04/09 01:59:47;;;;;;;8.77;3.67;;;;;;;;;;5025122;28;20214;-46
2021/04/09 02:02:15;;;;;;;6.17;3.13;;;;;;;;;;5018540;28;20202;-47
2021/04/09 02:04:41;;;;;;;10.83;5.27;;;;;;;;;;5021804;28;20224;-46
2021/04/09 02:07:09;;;;;;;6.60;4.23;;;;;;;;;;5024281;28;20192;-47
2021/04/09 02:09:34;;;;;;;11.43;4.57;;;;;;;;;;5024958;28;20202;-45
2021/04/09 02:12:01;;;;;;;7.50;4.00;;;;;;;;;;5019383;28;20729;-47
2021/04/09 02:14:28;;;;;;;8.83;4.23;;;;;;;;;;5022562;28;20557;-47
2021/04/09 02:16:54;;;;;;;6.97;4.00;;;;;;;;;;5013267;28;20666;-48
2021/04/09 02:19:20;;;;;;;7.17;3.03;;;;;;;;;;5028021;28;20210;-46
2021/04/09 02:21:46;;;;;;;7.83;3.13;;;;;;;;;;5038339;28;20252;-47
2021/04/09 02:24:11;;;;;;;11.63;4.93;;;;;;;;;;5023255;28;20186;-47
2021/04/09 02:26:37;;;;;;;12.00;4.50;;;;;;;;;;5022592;28;20214;-47
2021/04/09 02:29:05;;;;;;;7.47;4.33;;;;;;;;;;5025082;28;20219;-47
2021/04/09 02:31:31;;;;;;;6.37;4.13;;;;;;;;;;5017149;28;20202;-48
2021/04/09 02:33:56;;;;;;;9.03;4.70;;;;;;;;;;5021056;28;20882;-47
2021/04/09 02:36:27;;;;;;;7.40;3.83;;;;;;;;;;5022034;28;20240;-47
2021/04/09 02:38:57;;;;;;;9.00;4.27;;;;;;;;;;5026440;28;20588;-48
2021/04/09 02:41:28;;;;;;;6.20;2.07;;;;;;;;;;5020009;28;20289;-49
2021/04/09 02:43:54;;;;;;;1.77;1.40;;;;;;;;;;5018855;28;20193;-47
2021/04/09 02:46:30;;;;;;;4.23;2.07;;;;;;;;;;5022678;28;20199;-48
2021/04/09 02:49:00;;;;;;;5.07;2.57;;;;;;;;;;5017188;28;20698;-46
2021/04/09 02:51:27;;;;;;;5.63;1.83;;;;;;;;;;5024414;28;20210;-47
2021/04/09 02:53:56;;;;;;;1.80;1.70;;;;;;;;;;5017868;28;20206;-46
2021/04/09 02:56:24;;;;;;;1.30;1.20;;;;;;;;;;5022255;28;20217;-47
2021/04/09 02:58:51;;;;;;;4.07;2.17;;;;;;;;;;5021501;28;20191;-48
2021/04/09 03:01:20;;;;;;;1.63;1.53;;;;;;;;;;5025881;28;20340;-46
2021/04/09 03:03:45;;;;;;;4.83;2.80;;;;;;;;;;5016998;28;20187;-47
2021/04/09 03:06:11;;;;;;;5.93;3.40;;;;;;;;;;5019586;28;20209;-45
2021/04/09 03:08:36;;;;;;;2.77;2.43;;;;;;;;;;5019329;28;20215;-44
2021/04/09 03:11:02;;;;;;;3.80;2.30;;;;;;;;;;5025764;28;20199;-46
2021/04/09 03:13:28;;;;;;;1.70;0.90;;;;;;;;;;5019351;28;20621;-48
2021/04/09 03:15:59;;;;;;;1.33;1.20;;;;;;;;;;5014309;28;20193;-49
2021/04/09 03:18:28;;;;;;;4.10;3.13;;;;;;;;;;5016928;28;20199;-48
2021/04/09 03:20:54;;;;;;;7.03;2.93;;;;;;;;;;5025788;28;20186;-48
2021/04/09 03:23:20;;;;;;;4.87;3.07;;;;;;;;;;5022519;28;20669;-46
2021/04/09 03:25:45;;;;;;;2.77;1.73;;;;;;;;;;5021615;28;20226;-46
2021/04/09 03:28:11;;;;;;;3.53;2.73;;;;;;;;;;5019529;28;20207;-46
2021/04/09 03:30:36;;;;;;;3.77;2.20;;;;;;;;;;5021584;28;20190;-48
2021/04/09 03:33:02;;;;;;;4.03;2.47;;;;;;;;;;5022085;28;20257;-46
2021/04/09 03:35:27;;;;;;;3.00;2.73;;;;;;;;;;5022137;28;20194;-48
2021/04/09 03:37:52;;;;;;;6.73;2.73;;;;;;;;;;5021920;28;20203;-46
2021/04/09 03:40:18;;;;;;;4.70;3.03;;;;;;;;;;5022342;28;20187;-48
2021/04/09 03:42:45;;;;;;;6.13;3.73;;;;;;;;;;5022449;28;20252;-47
2021/04/09 03:45:11;;;;;;;5.37;3.33;;;;;;;;;;5020608;28;20210;-48
2021/04/09 03:47:36;;;;;;;5.17;3.80;;;;;;;;;;5017786;28;20214;-46
2021/04/09 03:50:03;;;;;;;10.57;3.87;;;;;;;;;;5021832;28;20219;-48
2021/04/09 03:52:28;;;;;;;8.07;3.80;;;;;;;;;;5021148;28;20203;-48
2021/04/09 03:54:53;;;;;;;7.13;3.90;;;;;;;;;;5017432;28;20672;-47
2021/04/09 03:57:19;;;;;;;4.37;3.13;;;;;;;;;;5019954;28;20191;-47
2021/04/09 03:59:44;;;;;;;5.73;3.97;;;;;;;;;;5023414;28;20199;-48
2021/04/09 04:02:10;;;;;;;4.57;2.87;;;;;;;;;;5020866;28;20207;-46
2021/04/09 04:04:35;;;;;;;6.53;3.60;;;;;;;;;;5021376;28;20197;-48
2021/04/09 04:07:01;;;;;;;6.10;3.70;;;;;;;;;;5018725;28;20188;-47
2021/04/09 04:09:26;;;;;;;5.70;3.97;;;;;;;;;;5022988;28;20214;-48
2021/04/09 04:11:51;;;;;;;5.47;3.60;;;;;;;;;;5017993;28;20211;-47
2021/04/09 04:14:17;;;;;;;7.00;4.17;;;;;;;;;;5014572;28;20292;-47
2021/04/09 04:16:43;;;;;;;5.17;2.87;;;;;;;;;;5019252;28;20227;-47
2021/04/09 04:19:08;;;;;;;4.80;3.40;;;;;;;;;;5024154;28;20674;-48
2021/04/09 04:21:33;;;;;;;5.10;3.20;;;;;;;;;;5017744;28;20211;-47
2021/04/09 04:23:59;;;;;;;6.33;3.00;;;;;;;;;;5017480;28;20264;-47
2021/04/09 04:26:24;;;;;;;4.27;3.00;;;;;;;;;;5015037;28;20245;-48
2021/04/09 04:28:50;;;;;;;4.57;3.20;;;;;;;;;;5024909;28;20221;-47
2021/04/09 04:31:16;;;;;;;3.87;3.00;;;;;;;;;;5020981;28;20921;-47
2021/04/09 04:33:41;;;;;;;4.13;2.60;;;;;;;;;;5025986;28;20226;-47
2021/04/09 04:36:07;;;;;;;4.73;2.83;;;;;;;;;;5027488;28;20305;-47
2021/04/09 04:38:32;;;;;;;4.83;2.73;;;;;;;;;;5020841;28;20210;-46
2021/04/09 04:40:59;;;;;;;7.43;2.37;;;;;;;;;;5011924;28;20198;-47
2021/04/09 04:43:25;;;;;;;4.57;3.10;;;;;;;;;;5013759;28;20187;-47
2021/04/09 04:45:51;;;;;;;3.97;2.67;;;;;;;;;;5011602;28;20194;-47
2021/04/09 04:48:16;;;;;;;4.90;2.87;;;;;;;;;;5009665;28;20188;-50
2021/04/09 04:50:42;;;;;;;5.47;1.80;;;;;;;;;;5012733;28;20199;-45
2021/04/09 04:53:07;;;;;;;6.60;3.60;;;;;;;;;;5016764;28;20211;-49
2021/04/09 04:55:33;;;;;;;5.40;3.20;;;;;;;;;;5015682;28;20192;-48
2021/04/09 04:57:59;;;;;;;4.00;2.57;;;;;;;;;;5024143;28;20228;-47
2021/04/09 05:00:25;;;;;;;5.90;3.23;;;;;;;;;;5020695;28;20187;-48
2021/04/09 05:02:50;;;;;;;5.47;2.87;;;;;;;;;;5012108;28;20241;-46
2021/04/09 05:05:15;;;;;;;6.70;3.30;;;;;;;;;;5021735;28;20245;-47
2021/04/09 05:07:41;;;;;;;7.23;3.40;;;;;;;;;;5020369;28;20572;-45
2021/04/09 05:10:07;;;;;;;4.77;3.43;;;;;;;;;;5031899;28;20317;-46
2021/04/09 05:12:33;;;;;;;2.53;2.13;;;;;;;;;;5014471;28;20770;-46
2021/04/09 05:14:58;;;;;;;7.07;3.50;;;;;;;;;;5021333;28;20186;-45
2021/04/09 05:17:24;;;;;;;9.07;3.50;;;;;;;;;;5017875;28;20224;-46
2021/04/09 05:19:49;;;;;;;5.00;3.23;;;;;;;;;;5018021;28;20198;-46
2021/04/09 05:22:15;;;;;;;7.33;3.03;;;;;;;;;;5020939;28;20218;-47
2021/04/09 05:24:40;;;;;;;4.17;2.57;;;;;;;;;;5022207;28;20201;-46
2021/04/09 05:27:06;;;;;;;3.07;2.40;;;;;;;;;;5024977;28;20193;-46
2021/04/09 05:29:31;;;;;;;2.60;1.50;;;;;;;;;;5027042;28;20598;-46
2021/04/09 05:31:57;;;;;;;6.60;3.93;;;;;;;;;;5027942;28;20288;-44
2021/04/09 05:34:22;;;;;;;8.13;3.37;;;;;;;;;;5017647;28;20194;-46
2021/04/09 05:36:48;;;;;;;6.27;4.73;;;;;;;;;;5024844;28;20199;-45
2021/04/09 05:39:13;;;;;;;8.73;5.30;;;;;;;;;;5013969;28;20209;-45
2021/04/09 05:41:38;;;;;;;8.37;4.87;;;;;;;;;;5026997;28;20718;-46
2021/04/09 05:44:04;;;;;;;12.60;4.53;;;;;;;;;;5024510;28;20207;-47
2021/04/09 05:46:29;;;;;;;8.20;4.23;;;;;;;;;;5007209;28;20194;-46
2021/04/09 05:48:55;;;;;;;8.57;5.13;;;;;;;;;;5023205;28;20642;-46
2021/04/09 05:51:20;;;;;;;9.03;4.40;;;;;;;;;;5027380;28;20222;-46
2021/04/09 05:53:46;;;;;;;6.10;3.87;;;;;;;;;;5025991;28;20640;-46
2021/04/09 05:56:11;;;;;;;9.77;4.30;;;;;;;;;;5023577;28;20196;-46
2021/04/09 05:58:37;;;;;;;6.30;4.33;;;;;;;;;;5025782;28;20187;-46
2021/04/09 06:01:02;;;;;;;6.27;3.87;;;;;;;;;;5026459;28;20409;-47
2021/04/09 06:03:27;;;;;;;2.43;1.77;;;;;;;;;;5023574;28;20233;-44
2021/04/09 06:05:53;;;;;;;4.43;3.03;;;;;;;;;;5025514;28;20187;-46
2021/04/09 06:08:18;;;;;;;5.07;2.43;;;;;;;;;;5019046;28;20210;-45
2021/04/09 06:10:43;;;;;;;5.57;3.37;;;;;;;;;;5022995;28;20194;-45
2021/04/09 06:13:08;;;;;;;8.23;4.43;;;;;;;;;;5022240;28;20579;-45
2021/04/09 06:15:34;;;;;;;6.07;4.00;;;;;;;;;;5032116;28;20203;-45
2021/04/09 06:17:59;;;;;;;2.70;2.03;;;;;;;;;;5020219;28;20273;-48
2021/04/09 06:20:24;;;;;;;8.73;2.40;;;;;;;;;;5024014;28;20191;-45
2021/04/09 06:22:50;;;;;;;4.70;2.87;;;;;;;;;;5022908;28;20241;-46
2021/04/09 06:25:17;;;;;;;5.50;3.60;;;;;;;;;;5021031;28;20194;-46
2021/04/09 06:27:43;;;;;;;3.33;2.63;;;;;;;;;;5020887;28;20194;-47
2021/04/09 06:30:09;;;;;;;4.47;3.13;;;;;;;;;;5017600;28;20226;-44
2021/04/09 06:32:34;;;;;;;4.97;2.70;;;;;;;;;;5020793;28;20610;-46
2021/04/09 06:34:59;;;;;;;5.83;3.80;;;;;;;;;;5022999;28;20195;-47
2021/04/09 06:37:25;;;;;;;3.80;2.83;;;;;;;;;;5018587;28;20659;-47
2021/04/09 06:39:50;;;;;;;5.37;3.27;;;;;;;;;;5020191;28;20200;-47
2021/04/09 06:42:18;;;;;;;8.87;3.67;;;;;;;;;;5026264;28;20293;-45
2021/04/09 06:44:46;;;;;;;10.60;4.40;;;;;;;;;;5016430;28;20194;-47
2021/04/09 06:47:12;;;;;;;7.00;4.60;;;;;;;;;;5018174;28;20252;-46
2021/04/09 06:49:40;;;;;;;9.80;4.13;;;;;;;;;;5022167;28;20678;-45
2021/04/09 06:52:05;;;;;;;5.43;3.20;;;;;;;;;;5022191;28;20643;-46
2021/04/09 06:54:31;;;;;;;6.80;4.73;;;;;;;;;;5021041;28;20279;-47
2021/04/09 06:56:56;;;;;;;5.93;4.13;;;;;;;;;;5022070;28;20274;-45
2021/04/09 06:59:31;;;;;;;4.30;3.03;;;;;;;;;;5019583;28;20602;-46
2021/04/09 07:02:00;;;;;;;7.00;3.80;;;;;;;;;;5022168;28;20214;-46
2021/04/09 07:04:25;;;;;;;6.13;4.20;;;;;;;;;;5024115;28;20215;-45
2021/04/09 07:06:51;;;;;;;6.93;4.10;;;;;;;;;;5017291;28;20194;-46
2021/04/09 07:09:17;;;;;;;5.87;4.67;;;;;;;;;;5019359;28;20206;-45
2021/04/09 07:11:52;;;;;;;4.57;3.80;;;;;;;;;;5021244;28;20829;-47
2021/04/09 07:14:20;;;;;;;5.20;3.73;;;;;;;;;;5024450;28;20198;-46
2021/04/09 07:16:59;;;;;;;8.10;4.90;;;;;;;;;;5003923;28;20807;-46
2021/04/09 07:19:37;;;;;;;8.90;4.90;;;;;;;;;;5018963;28;20286;-46
2021/04/09 07:22:05;;;;;;;7.93;4.77;;;;;;;;;;5019281;28;20229;-47
2021/04/09 07:24:31;;;;;;;8.93;5.33;;;;;;;;;;5022452;28;20202;-47
2021/04/09 07:26:58;;;;;;;6.83;4.03;;;;;;;;;;5020454;28;20194;-45
2021/04/09 07:29:30;;;;;;;7.80;5.37;;;;;;;;;;5021121;28;20217;-46
2021/04/09 07:31:56;;;;;;;7.00;4.27;;;;;;;;;;5020409;28;22097;-47
2021/04/09 07:34:21;;;;;;;5.67;3.63;;;;;;;;;;5024909;28;20269;-48
2021/04/09 07:36:54;;;;;;;5.70;4.60;;;;;;;;;;5021478;28;20322;-46
2021/04/09 07:39:35;;;;;;;8.97;4.73;;;;;;;;;;5019952;28;20190;-46
2021/04/09 07:42:11;;;;;;;8.13;4.83;;;;;;;;;;5013320;28;20210;-50
2021/04/09 07:44:38;;;;;;;7.80;5.47;;;;;;;;;;5021210;28;20654;-46
2021/04/09 07:47:11;;;;;;;6.13;4.07;;;;;;;;;;5023690;28;20282;-45
2021/04/09 07:49:37;;;;;;;6.90;3.37;;;;;;;;;;5021191;28;20973;-47
2021/04/09 07:52:12;;;;;;;6.13;3.47;;;;;;;;;;5020195;28;20210;-47
2021/04/09 07:54:39;;;;;;;9.43;4.40;;;;;;;;;;5021667;28;20722;-46
2021/04/09 07:57:05;;;;;;;4.67;2.97;;;;;;;;;;5022805;28;20179;-47
2021/04/09 07:59:45;;;;;;;5.30;3.90;;;;;;;;;;5021525;28;20654;-46
2021/04/09 08:02:12;;;;;;;6.90;4.03;;;;;;;;;;5020179;28;20923;-45
2021/04/09 08:04:42;;;;;;;4.93;3.80;;;;;;;;;;5035270;28;20218;-46
2021/04/09 08:07:28;;;;;;;5.57;3.80;;;;;;;;;;5023874;28;20462;-46
2021/04/09 08:09:53;;;;;;;8.23;5.00;;;;;;;;;;5020677;28;20309;-47
2021/04/09 08:12:35;;;;;;;6.97;4.43;;;;;;;;;;5020527;28;20301;-47
2021/04/09 08:15:24;;;;;;;8.60;5.63;;;;;;;;;;5019880;28;20206;-46
2021/04/09 08:18:06;;;;;;;12.80;4.87;;;;;;;;;;5020284;28;20574;-46
2021/04/09 08:20:34;;;;;;;8.30;5.70;;;;;;;;;;5019045;28;20686;-45
2021/04/09 08:23:05;;;;;;;8.43;5.10;;;;;;;;;;5020219;28;20844;-46
2021/04/09 08:25:31;;;;;;;10.67;5.63;;;;;;;;;;5021867;28;20209;-48
2021/04/09 08:27:59;;;;;;;6.03;4.63;;;;;;;;;;5019152;28;20256;-48
2021/04/09 08:30:29;;;;;;;9.57;5.60;;;;;;;;;;5019091;28;20305;-49
2021/04/09 08:32:56;;;;;;;7.70;5.47;;;;;;;;;;5011246;28;20222;-47
2021/04/09 08:35:22;;;;;;;7.50;5.77;;;;;;;;;;5011735;28;20214;-45
2021/04/09 08:37:54;;;;;;;7.63;6.13;;;;;;;;;;5019473;28;20195;-47
2021/04/09 08:40:21;;;;;;;8.13;5.50;;;;;;;;;;5020996;28;20249;-47
2021/04/09 08:42:46;;;;;;;9.47;5.60;;;;;;;;;;5007947;28;20390;-46
2021/04/09 08:45:13;;;;;;;7.37;5.77;;;;;;;;;;5019066;28;20270;-48
2021/04/09 08:47:39;;;;;;;8.07;6.27;;;;;;;;;;5019245;28;20198;-48
2021/04/09 08:50:13;;;;;;;11.90;6.13;;;;;;;;;;5014011;28;21082;-48
2021/04/09 08:52:46;;;;;;;9.77;5.80;;;;;;;;;;5019958;28;20745;-48
2021/04/09 08:55:13;;;;;;;8.93;5.20;;;;;;;;;;5018147;28;20186;-49
2021/04/09 08:57:42;;;;;;;7.70;5.60;;;;;;;;;;5017950;28;20198;-47
2021/04/09 09:00:09;;;;;;;6.33;5.20;;;;;;;;;;5017276;28;20274;-47
2021/04/09 09:02:40;;;;;;;12.53;5.90;;;;;;;;;;5015617;28;20218;-47
2021/04/09 09:05:09;;;;;;;14.77;6.60;;;;;;;;;;5018626;28;20633;-46
2021/04/09 09:07:43;;;;;;;12.63;6.53;;;;;;;;;;5014796;28;20190;-49
2021/04/09 09:10:31;;;;;;;13.17;6.40;;;;;;;;;;5015751;28;20255;-48
2021/04/09 09:13:05;;;;;;;8.20;5.90;;;;;;;;;;5017441;28;20228;-48
2021/04/09 09:15:46;;;;;;;11.17;6.83;;;;;;;;;;5019637;28;20217;-46
2021/04/09 09:18:23;;;;;;;15.10;7.40;;;;;;;;;;5016714;28;20244;-46
2021/04/09 09:21:05;;;;;;;6.47;4.57;;;;;;;;;;5022309;28;20248;-50
2021/04/09 09:23:53;;;;;;;10.67;6.40;;;;;;;;;;5014330;28;20191;-46
2021/04/09 09:26:38;;;;;;;7.53;6.30;;;;;;;;;;5020820;28;20249;-48
2021/04/09 09:29:16;;;;;;;8.53;6.50;;;;;;;;;;5021365;28;20621;-48
2021/04/09 09:32:01;;;;;;;8.63;6.03;;;;;;;;;;5016945;28;20598;-49
2021/04/09 09:34:27;;;;;;;10.77;6.90;;;;;;;;;;5015935;28;20190;-46
2021/04/09 09:37:01;;;;;;;10.17;6.27;;;;;;;;;;5020096;28;20264;-47
2021/04/09 09:39:48;;;;;;;9.93;6.37;;;;;;;;;;5014120;28;20198;-46
2021/04/09 09:42:26;;;;;;;11.10;6.80;;;;;;;;;;5016440;28;20222;-48
2021/04/09 09:44:55;;;;;;;8.10;5.63;;;;;;;;;;5017720;28;20206;-48
2021/04/09 09:47:41;;;;;;;9.57;6.40;;;;;;;;;;5019472;28;20191;-49
2021/04/09 09:50:07;;;;;;;8.70;7.20;;;;;;;;;;5019922;28;20329;-49
2021/04/09 09:52:39;;;;;;;8.93;5.97;;;;;;;;;;5016392;28;20218;-47
2021/04/09 09:55:23;;;;;;;8.70;5.40;;;;;;;;;;5019888;28;20198;-49
2021/04/09 09:57:49;;;;;;;12.73;7.33;;;;;;;;;;5014646;28;20245;-48
2021/04/09 10:00:29;;;;;;;9.00;6.17;;;;;;;;;;5013158;28;20192;-49
2021/04/09 10:03:34;;;;;;;8.70;6.00;;;;;;;;;;5019852;28;20232;-47
2021/04/09 10:06:05;;;;;;;8.13;5.80;;;;;;;;;;5007401;28;20233;-47
2021/04/09 10:08:36;;;;;;;7.50;6.30;;;;;;;;;;5016368;28;20646;-46
2021/04/09 10:11:06;;;;;;;9.20;6.23;;;;;;;;;;5012835;28;20201;-47
2021/04/09 10:13:38;;;;;;;7.50;5.53;;;;;;;;;;5018933;28;21332;-48
2021/04/09 10:16:08;;;;;;;7.20;5.53;;;;;;;;;;5024685;28;20213;-47
2021/04/09 10:18:36;;;;;;;10.47;5.87;;;;;;;;;;5020967;28;20270;-46
2021/04/09 10:21:39;;;;;;;7.47;4.90;;;;;;;;;;5017631;28;20250;-46
2021/04/09 10:24:12;;;;;;;8.70;6.33;;;;;;;;;;5017322;28;20221;-46
2021/04/09 10:26:41;;;;;;;7.80;5.60;;;;;;;;;;5032711;28;20202;-48
2021/04/09 10:29:29;;;;;;;8.80;5.40;;;;;;;;;;5006739;28;20250;-47
2021/04/09 10:31:56;;;;;;;7.37;5.03;;;;;;;;;;5022462;28;20210;-46
2021/04/09 10:34:23;;;;;;;9.77;4.87;;;;;;;;;;5022098;28;20264;-45
2021/04/09 10:36:49;;;;;;;8.63;5.37;;;;;;;;;;5023655;28;20716;-48
2021/04/09 10:39:18;;;;;;;8.30;4.73;;;;;;;;;;5022542;28;20279;-46
2021/04/09 10:41:45;;;;;;;10.43;5.43;;;;;;;;;;5023027;28;20222;-46
2021/04/09 10:44:15;;;;;;;7.10;5.47;;;;;;;;;;5024095;28;20301;-47
2021/04/09 10:46:43;;;;;;;7.37;4.90;;;;;;;;;;5023712;28;20194;-46
2021/04/09 10:49:12;;;;;;;11.30;5.23;;;;;;;;;;5023785;28;20210;-46
2021/04/09 10:51:47;;;;;;;8.73;5.60;;;;;;;;;;5024697;28;20226;-47
2021/04/09 10:54:15;;;;;;;8.10;5.20;;;;;;;;;;5024426;28;20190;-47
2021/04/09 10:56:43;;;;;;;7.07;5.10;;;;;;;;;;5016024;28;20699;-46
2021/04/09 10:59:12;;;;;;;6.73;3.87;;;;;;;;;;5017379;28;20187;-46
2021/04/09 11:01:39;;;;;;;6.20;4.23;;;;;;;;;;5035378;28;21774;-46
2021/04/09 11:04:05;;;;;;;5.20;4.37;;;;;;;;;;5024671;28;20187;-46
2021/04/09 11:06:30;;;;;;;7.53;4.40;;;;;;;;;;5023146;28;20707;-49
2021/04/09 11:09:04;;;;;;;6.20;4.60;;;;;;;;;;5019751;28;20218;-47
2021/04/09 11:11:31;;;;;;;8.27;4.37;;;;;;;;;;5018678;28;20250;-46
2021/04/09 11:14:17;;;;;;;6.13;4.63;;;;;;;;;;5024291;28;20191;-47
2021/04/09 11:16:58;;;;;;;6.87;4.17;;;;;;;;;;5016487;28;20198;-45
2021/04/09 11:19:30;;;;;;;8.50;5.20;;;;;;;;;;5021530;28;20190;-47
2021/04/09 11:21:56;;;;;;;8.07;4.57;;;;;;;;;;5037484;28;20207;-46
2021/04/09 11:24:30;;;;;;;6.27;4.57;;;;;;;;;;5019073;28;20188;-47
2021/04/09 11:26:57;;;;;;;5.67;4.30;;;;;;;;;;5024869;28;20196;-46
2021/04/09 11:29:28;;;;;;;6.97;4.87;;;;;;;;;;5020064;28;20230;-45
2021/04/09 11:32:21;;;;;;;6.17;4.53;;;;;;;;;;5017407;28;20335;-47
2021/04/09 11:34:48;;;;;;;5.77;4.67;;;;;;;;;;5023434;28;20213;-47
2021/04/09 11:37:16;;;;;;;7.37;4.40;;;;;;;;;;5024168;28;20236;-48
2021/04/09 11:39:51;;;;;;;5.60;4.23;;;;;;;;;;5024976;28;20185;-48
2021/04/09 11:42:34;;;;;;;6.57;4.00;;;;;;;;;;5022533;28;20710;-47
2021/04/09 11:45:11;;;;;;;7.37;4.90;;;;;;;;;;5022261;28;20198;-46
2021/04/09 11:47:39;;;;;;;5.53;4.30;;;;;;;;;;5018350;28;20222;-47
2021/04/09 11:50:17;;;;;;;5.70;4.10;;;;;;;;;;5020556;28;20242;-48
2021/04/09 11:52:54;;;;;;;7.07;4.60;;;;;;;;;;5024833;28;20203;-47
2021/04/09 11:55:23;;;;;;;6.30;4.20;;;;;;;;;;5022434;28;20191;-47
2021/04/09 11:57:48;;;;;;;7.90;4.40;;;;;;;;;;5019792;28;20195;-46
2021/04/09 12:00:23;;;;;;;6.60;3.90;;;;;;;;;;5021319;28;20199;-48
2021/04/09 12:02:50;;;;;;;6.37;4.47;;;;;;;;;;5022019;28;20232;-47
2021/04/09 12:05:20;;;;;;;6.07;4.23;;;;;;;;;;5022217;28;20241;-46
2021/04/09 12:07:45;;;;;;;8.60;4.80;;;;;;;;;;5018453;28;20560;-46
2021/04/09 12:10:11;;;;;;;4.97;3.87;;;;;;;;;;5021235;28;20237;-46
2021/04/09 12:12:36;;;;;;;6.90;4.20;;;;;;;;;;5022583;28;20329;-47
2021/04/09 12:15:02;;;;;;;8.10;4.70;;;;;;;;;;5023333;28;20281;-46
2021/04/09 12:17:27;;;;;;;6.97;4.23;;;;;;;;;;5021271;28;20198;-47
2021/04/09 12:19:58;;;;;;;6.87;4.37;;;;;;;;;;5019767;28;20595;-47
2021/04/09 12:22:23;;;;;;;6.90;4.47;;;;;;;;;;5010465;28;20210;-46
2021/04/09 12:24:49;;;;;;;6.57;4.93;;;;;;;;;;5011782;28;20670;-46
2021/04/09 12:27:19;;;;;;;7.47;4.90;;;;;;;;;;5022035;28;20250;-46
2021/04/09 12:29:45;;;;;;;5.90;4.47;;;;;;;;;;5019173;28;20689;-45
2021/04/09 12:32:11;;;;;;;5.97;4.50;;;;;;;;;;5020278;28;20214;-45
2021/04/09 12:34:36;;;;;;;8.37;5.03;;;;;;;;;;5005465;28;20194;-45
2021/04/09 12:37:03;;;;;;;7.93;4.70;;;;;;;;;;5021736;28;20218;-46
2021/04/09 12:39:28;;;;;;;11.73;5.20;;;;;;;;;;5020925;28;20186;-45
2021/04/09 12:41:54;;;;;;;6.70;4.73;;;;;;;;;;5021282;28;20698;-46
2021/04/09 12:44:21;;;;;;;7.03;4.70;;;;;;;;;;5023126;28;20190;-46
2021/04/09 12:46:47;;;;;;;6.18;5.00;;;;;;;;;;5022008;28;20417;-47
2021/04/09 12:49:14;;;;;;;8.87;5.70;;;;;;;;;;5020469;28;20805;-45
2021/04/09 12:51:42;;;;;;;8.90;5.13;;;;;;;;;;5022398;28;20274;-46
2021/04/09 12:54:08;;;;;;;8.30;5.00;;;;;;;;;;5012439;28;20683;-46
2021/04/09 12:56:34;;;;;;;5.40;4.43;;;;;;;;;;5015569;28;20221;-44
2021/04/09 12:58:59;;;;;;;6.87;4.97;;;;;;;;;;5015762;28;20650;-45
2021/04/09 13:01:24;;;;;;;5.60;4.40;;;;;;;;;;5016202;28;20222;-46
2021/04/09 13:03:50;;;;;;;5.47;4.90;;;;;;;;;;5021383;28;20198;-47
2021/04/09 13:06:15;;;;;;;8.43;4.83;;;;;;;;;;5017719;28;20852;-49
2021/04/09 13:08:42;;;;;;;7.30;4.13;;;;;;;;;;5018893;28;20215;-46
2021/04/09 13:11:08;;;;;;;6.23;4.53;;;;;;;;;;5013800;28;20187;-47
2021/04/09 13:13:34;;;;;;;24.60;17.63;;;;;;;;;;5019078;28;20624;-46
2021/04/09 13:16:00;;;;;;;8.77;6.73;;;;;;;;;;5018628;28;20194;-46
2021/04/09 13:18:29;;;;;;;11.63;7.27;;;;;;;;;;5020040;28;20675;-47
2021/04/09 13:20:58;;;;;;;6.57;4.93;;;;;;;;;;5018844;28;20852;-46
2021/04/09 13:23:24;;;;;;;7.90;4.97;;;;;;;;;;5017478;28;20278;-46
2021/04/09 13:25:50;;;;;;;6.93;4.83;;;;;;;;;;5015550;28;20281;-45
2021/04/09 13:28:15;;;;;;;6.53;4.27;;;;;;;;;;5014563;28;20216;-46
2021/04/09 13:30:41;;;;;;;8.30;5.43;;;;;;;;;;5016537;28;20203;-45
2021/04/09 13:33:07;;;;;;;6.80;5.40;;;;;;;;;;5017463;28;20202;-49
2021/04/09 13:35:33;;;;;;;8.00;5.37;;;;;;;;;;5015092;28;20821;-46
2021/04/09 13:38:00;;;;;;;7.37;4.70;;;;;;;;;;5018517;28;20191;-45
2021/04/09 13:40:26;;;;;;;7.20;5.30;;;;;;;;;;5019699;28;20194;-47
2021/04/09 13:42:52;;;;;;;7.97;4.67;;;;;;;;;;5023188;28;20221;-47
2021/04/09 13:45:17;;;;;;;6.07;4.57;;;;;;;;;;5017342;28;20190;-46
2021/04/09 13:47:45;;;;;;;5.37;4.63;;;;;;;;;;5019958;28;20565;-46
2021/04/09 13:50:11;;;;;;;12.23;5.20;;;;;;;;;;5019798;28;20203;-46
2021/04/09 13:52:36;;;;;;;7.93;4.97;;;;;;;;;;5019132;28;20197;-46
2021/04/09 13:55:03;;;;;;;6.77;4.30;;;;;;;;;;5021950;28;20195;-46
2021/04/09 13:57:28;;;;;;;6.57;4.27;;;;;;;;;;5020943;28;20913;-46
2021/04/09 13:59:53;;;;;;;6.40;4.33;;;;;;;;;;5016263;28;20266;-46
2021/04/09 14:02:18;;;;;;;9.03;5.00;;;;;;;;;;5020346;28;20691;-45
2021/04/09 14:04:44;;;;;;;6.50;4.23;;;;;;;;;;5019676;28;20209;-47
2021/04/09 14:07:10;;;;;;;5.67;4.40;;;;;;;;;;5020604;28;20191;-47
2021/04/09 14:09:36;;;;;;;7.37;4.60;;;;;;;;;;5013916;28;20250;-46
2021/04/09 14:12:03;;;;;;;6.60;4.50;;;;;;;;;;5021839;28;20206;-46
2021/04/09 14:14:28;;;;;;;5.63;4.30;;;;;;;;;;5021485;28;20222;-47
2021/04/09 14:16:53;;;;;;;5.67;4.30;;;;;;;;;;5023917;28;20865;-46
2021/04/09 14:19:19;;;;;;;6.83;4.77;;;;;;;;;;5021852;28;20595;-46
2021/04/09 14:21:44;;;;;;;5.43;4.47;;;;;;;;;;5021494;28;20205;-47
2021/04/09 14:24:09;;;;;;;5.80;4.53;;;;;;;;;;5022786;28;20199;-45
2021/04/09 14:26:35;;;;;;;8.50;4.47;;;;;;;;;;5021279;28;20201;-45
2021/04/09 14:29:00;;;;;;;4.97;4.00;;;;;;;;;;5023586;28;20642;-45
2021/04/09 14:31:25;;;;;;;4.73;4.20;;;;;;;;;;5021132;28;20233;-46
2021/04/09 14:33:50;;;;;;;5.87;4.20;;;;;;;;;;5022592;28;20197;-46
2021/04/09 14:36:16;;;;;;;6.30;3.73;;;;;;;;;;5021389;28;20280;-45
2021/04/09 14:38:42;;;;;;;5.77;4.30;;;;;;;;;;5021612;28;20936;-44
2021/04/09 14:41:07;;;;;;;8.43;4.70;;;;;;;;;;5021021;28;20686;-48
2021/04/09 14:43:33;;;;;;;7.77;4.47;;;;;;;;;;5024879;28;20194;-47
2021/04/09 14:45:58;;;;;;;6.53;4.40;;;;;;;;;;5016776;28;20568;-50
2021/04/09 14:48:23;;;;;;;4.73;3.80;;;;;;;;;;5013539;28;20198;-49